createdAt,value
2023-05-05T00:01:10.061Z,28.00
2023-05-05T00:03:40.625Z,23.92
2023-05-05T00:06:14.304Z,21.85
2023-05-05T00:08:44.858Z,23.90
2023-05-05T00:11:12.824Z,27.13
2023-05-05T00:13:43.418Z,27.13
2023-05-05T00:18:41.330Z,33.10
2023-05-05T00:24:04.861Z,33.17
2023-05-05T00:26:33.860Z,35.70
2023-05-05T00:29:02.681Z,26.98
2023-05-05T00:31:30.559Z,25.42
2023-05-05T00:34:02.064Z,24.20
2023-05-05T00:36:31.809Z,25.40
2023-05-05T00:39:04.766Z,30.77
2023-05-05T00:41:32.437Z,32.33
2023-05-05T00:44:01.880Z,33.83
2023-05-05T00:52:16.966Z,29.98
2023-05-05T00:54:44.403Z,28.63
2023-05-05T00:57:18.048Z,29.40
2023-05-05T00:59:46.673Z,35.33
2023-05-05T01:02:16.423Z,33.70
2023-05-05T01:04:47.514Z,36.93
2023-05-05T01:07:37.427Z,39.25
2023-05-05T01:10:19.643Z,36.00
2023-05-05T01:12:58.783Z,30.35
2023-05-05T01:15:49.048Z,32.35
2023-05-05T01:18:39.715Z,28.83
2023-05-05T01:21:56.892Z,30.88
2023-05-05T01:24:36.526Z,27.48
2023-05-05T01:27:41.021Z,24.35
2023-05-05T01:30:18.984Z,27.00
2023-05-05T01:32:51.314Z,26.80
2023-05-05T01:35:21.105Z,26.80
2023-05-05T01:38:17.208Z,27.73
2023-05-05T01:40:48.790Z,26.10
2023-05-05T01:43:16.682Z,27.27
2023-05-05T01:45:44.386Z,29.40
2023-05-05T01:48:14.585Z,27.88
2023-05-05T01:50:42.738Z,25.17
2023-05-05T01:53:13.126Z,21.83
2023-05-05T01:55:40.561Z,20.00
2023-05-05T01:58:08.521Z,17.95
2023-05-05T02:00:36.236Z,21.38
2023-05-05T02:03:06.020Z,22.75
2023-05-05T02:05:34.740Z,22.60
2023-05-05T02:08:02.893Z,22.60
2023-05-05T02:10:30.924Z,26.02
2023-05-05T02:13:01.474Z,24.90
2023-05-05T02:20:47.248Z,23.25
2023-05-05T02:23:18.004Z,23.00
2023-05-05T02:25:52.252Z,20.73
2023-05-05T02:28:22.400Z,22.90
2023-05-05T02:31:00.796Z,21.20
2023-05-05T02:33:29.817Z,18.50
2023-05-05T02:35:57.172Z,18.88
2023-05-05T02:38:27.899Z,17.65
2023-05-05T02:40:58.802Z,16.95
2023-05-05T02:43:28.902Z,17.55
2023-05-05T02:45:57.157Z,18.08
2023-05-05T02:48:26.288Z,18.92
2023-05-05T02:51:04.533Z,19.63
2023-05-05T02:53:32.173Z,20.42
2023-05-05T02:56:36.932Z,23.75
2023-05-05T02:59:19.114Z,24.13
2023-05-05T03:02:15.873Z,22.67
2023-05-05T03:04:52.672Z,21.40
2023-05-05T03:07:24.773Z,21.48
2023-05-05T03:10:17.039Z,23.77
2023-05-05T03:12:54.347Z,26.05
2023-05-05T03:15:39.125Z,24.30
2023-05-05T03:18:07.331Z,23.80
2023-05-05T03:20:37.450Z,22.83
2023-05-05T03:23:05.020Z,23.02
2023-05-05T03:25:49.570Z,22.35
2023-05-05T03:28:18.728Z,22.05
2023-05-05T03:30:46.537Z,21.75
2023-05-05T03:33:16.416Z,21.73
2023-05-05T03:35:44.137Z,21.38
2023-05-05T03:38:12.490Z,19.42
2023-05-05T03:40:44.681Z,19.65
2023-05-05T03:43:12.765Z,21.30
2023-05-05T03:45:42.509Z,21.58
2023-05-05T03:48:12.020Z,22.40
2023-05-05T03:50:39.779Z,24.13
2023-05-05T03:55:57.193Z,25.73
2023-05-05T03:58:25.985Z,25.15
2023-05-05T04:00:57.245Z,24.30
2023-05-05T04:06:06.530Z,23.75
2023-05-05T04:08:34.305Z,22.70
2023-05-05T04:11:09.803Z,23.92
2023-05-05T04:13:46.443Z,24.95
2023-05-05T04:16:20.400Z,24.27
2023-05-05T04:18:53.287Z,22.92
2023-05-05T04:21:20.829Z,23.60
2023-05-05T04:23:50.220Z,21.73
2023-05-05T04:26:25.131Z,23.58
2023-05-05T04:31:38.733Z,29.77
2023-05-05T04:34:07.216Z,30.88
2023-05-05T04:36:38.418Z,30.65
2023-05-05T04:39:07.688Z,29.58
2023-05-05T04:41:38.807Z,27.98
2023-05-05T04:44:08.181Z,28.40
2023-05-05T04:46:38.702Z,25.13
2023-05-05T04:49:07.045Z,25.65
2023-05-05T04:54:17.154Z,26.63
2023-05-05T04:56:45.992Z,27.75
2023-05-05T04:59:17.803Z,27.73
2023-05-05T05:04:30.804Z,24.92
2023-05-05T05:20:45.146Z,24.23
2023-05-05T05:28:39.832Z,24.23
2023-05-05T05:33:50.916Z,21.55
2023-05-05T05:36:24.854Z,22.17
2023-05-05T05:38:55.318Z,24.00
2023-05-05T05:41:23.274Z,23.10
2023-05-05T05:43:50.967Z,24.33
2023-05-05T05:46:28.850Z,22.73
2023-05-05T05:49:03.182Z,24.70
2023-05-05T05:51:31.308Z,22.88
2023-05-05T05:54:01.953Z,22.73
2023-05-05T05:56:30.640Z,23.13
2023-05-05T06:15:18.679Z,25.83
2023-05-05T06:23:20.615Z,28.42
2023-05-05T06:25:57.813Z,28.00
2023-05-05T06:34:01.781Z,26.27
2023-05-05T06:39:18.544Z,28.63
2023-05-05T06:55:52.007Z,33.80
2023-05-05T06:58:25.521Z,33.17
2023-05-05T07:00:52.970Z,33.55
2023-05-05T07:03:22.392Z,31.83
2023-05-05T07:05:50.961Z,31.10
2023-05-05T07:08:19.720Z,31.55
2023-05-05T07:10:51.848Z,28.88
2023-05-05T07:13:20.413Z,27.80
2023-05-05T07:21:27.572Z,27.40
2023-05-05T07:24:31.690Z,26.90
2023-05-05T07:27:00.292Z,28.58
2023-05-05T07:29:32.817Z,27.08
2023-05-05T07:32:01.295Z,28.65
2023-05-05T07:34:29.766Z,29.33
2023-05-05T07:45:01.085Z,29.65
2023-05-05T07:47:28.691Z,28.85
2023-05-05T07:50:28.426Z,29.90
2023-05-05T07:53:10.751Z,25.05
2023-05-05T08:16:57.906Z,16.88
2023-05-05T08:19:38.465Z,14.43
2023-05-05T08:24:59.900Z,16.40
2023-05-05T08:27:31.262Z,15.75
2023-05-05T08:36:53.005Z,19.10
2023-05-05T08:40:21.205Z,20.30
2023-05-05T08:42:57.672Z,20.85
2023-05-05T08:45:25.724Z,20.83
2023-05-05T08:48:04.193Z,20.73
2023-05-05T08:50:32.344Z,19.80
2023-05-05T08:53:24.050Z,20.50
2023-05-05T08:56:01.451Z,21.40
2023-05-05T08:58:32.208Z,21.27
2023-05-05T09:01:01.833Z,21.40
2023-05-05T09:03:33.545Z,19.73
2023-05-05T09:06:02.978Z,18.98
2023-05-05T09:08:37.001Z,17.30
2023-05-05T09:11:05.076Z,17.27
2023-05-05T09:16:21.886Z,16.65
2023-05-05T09:18:50.831Z,15.82
2023-05-05T09:21:27.802Z,15.55
2023-05-05T09:27:35.417Z,14.57
2023-05-05T09:32:53.931Z,15.18
2023-05-05T09:38:15.361Z,13.32
2023-05-05T09:47:44.514Z,11.57
2023-05-05T09:50:18.049Z,12.15
2023-05-05T09:53:01.823Z,11.75
2023-05-05T09:55:29.500Z,11.73
2023-05-05T09:57:57.431Z,13.57
2023-05-05T10:00:42.549Z,11.63
2023-05-05T10:03:15.691Z,13.55
2023-05-05T10:06:07.444Z,12.65
2023-05-05T10:08:34.880Z,12.23
2023-05-05T10:11:21.165Z,11.05
2023-05-05T10:13:58.368Z,10.55
2023-05-05T10:16:27.407Z,10.88
2023-05-05T10:19:02.114Z,10.93
2023-05-05T10:21:34.561Z,11.00
2023-05-05T10:24:12.585Z,10.98
2023-05-05T10:26:43.808Z,11.20
2023-05-05T10:29:21.731Z,11.23
2023-05-05T10:31:53.950Z,10.32
2023-05-05T10:34:36.132Z,9.90
2023-05-05T10:37:05.040Z,10.65
2023-05-05T10:39:32.380Z,9.32
2023-05-05T10:42:02.236Z,10.68
2023-05-05T10:44:32.662Z,10.10
2023-05-05T10:50:04.078Z,9.88
2023-05-05T10:53:08.699Z,9.40
2023-05-05T10:56:04.505Z,10.77
2023-05-05T10:58:46.873Z,9.68
2023-05-05T11:01:35.490Z,10.00
2023-05-05T11:04:23.797Z,9.82
2023-05-05T11:07:29.370Z,9.75
2023-05-05T11:10:05.508Z,9.35
2023-05-05T11:12:36.036Z,9.55
2023-05-05T11:15:29.062Z,9.90
2023-05-05T11:18:06.716Z,10.23
2023-05-05T11:20:38.171Z,9.35
2023-05-05T11:23:29.797Z,8.75
2023-05-05T11:26:56.429Z,7.53
2023-05-05T11:29:27.252Z,7.15
2023-05-05T11:32:16.057Z,6.85
2023-05-05T11:34:52.299Z,5.65
2023-05-05T11:37:19.987Z,6.22
2023-05-05T11:40:00.474Z,6.47
2023-05-05T11:42:28.887Z,6.45
2023-05-05T11:45:02.329Z,5.55
2023-05-05T11:47:36.480Z,6.13
2023-05-05T11:50:17.433Z,5.80
2023-05-05T11:52:45.293Z,5.95
2023-05-05T11:55:15.854Z,6.50
2023-05-05T12:00:59.971Z,5.50
2023-05-05T12:09:07.532Z,6.22
2023-05-05T12:11:35.532Z,5.97
2023-05-05T12:14:14.519Z,6.00
2023-05-05T12:16:54.975Z,5.93
2023-05-05T12:19:22.701Z,5.75
2023-05-05T12:21:50.336Z,6.25
2023-05-05T12:24:18.103Z,5.13
2023-05-05T12:27:22.282Z,5.32
2023-05-05T12:29:49.658Z,6.03
2023-05-05T12:32:55.454Z,5.18
2023-05-05T12:35:28.496Z,6.53
2023-05-05T12:42:14.813Z,5.50
2023-05-05T12:44:44.470Z,5.93
2023-05-05T12:47:14.964Z,6.40
2023-05-05T12:49:46.475Z,6.45
2023-05-05T12:52:14.524Z,5.93
2023-05-05T12:54:55.154Z,6.25
2023-05-05T12:57:22.670Z,6.70
2023-05-05T12:59:50.334Z,6.57
2023-05-05T13:02:18.723Z,5.60
2023-05-05T13:04:53.142Z,5.00
2023-05-05T13:07:21.673Z,6.07
2023-05-05T13:09:49.456Z,7.90
2023-05-05T13:12:19.824Z,6.13
2023-05-05T13:17:14.749Z,5.80
2023-05-05T13:19:43.011Z,6.15
2023-05-05T13:22:10.564Z,5.53
2023-05-05T13:25:06.992Z,5.40
2023-05-05T13:27:38.360Z,5.50
2023-05-05T13:30:06.663Z,5.90
2023-05-05T13:32:33.983Z,5.65
2023-05-05T13:35:01.343Z,5.35
2023-05-05T13:37:29.269Z,4.63
2023-05-05T13:39:59.529Z,4.25
2023-05-05T13:42:28.827Z,4.82
2023-05-05T13:44:56.129Z,5.63
2023-05-05T13:47:25.362Z,5.25
2023-05-05T13:49:52.847Z,5.45
2023-05-05T13:52:21.913Z,5.20
2023-05-05T13:54:49.457Z,5.00
2023-05-05T13:57:19.712Z,5.05
2023-05-05T13:59:47.107Z,5.70
2023-05-05T14:02:19.071Z,4.85
2023-05-05T14:04:48.725Z,4.57
2023-05-05T14:07:16.079Z,6.28
2023-05-05T14:10:03.292Z,4.82
2023-05-05T14:12:31.384Z,4.70
2023-05-05T14:14:58.881Z,4.82
2023-05-05T14:17:26.294Z,5.13
2023-05-05T14:19:54.862Z,5.72
2023-05-05T14:22:24.576Z,5.13
2023-05-05T14:25:12.722Z,4.25
2023-05-05T14:27:40.168Z,4.40
2023-05-05T14:30:11.072Z,5.15
2023-05-05T14:32:38.305Z,5.18
2023-05-05T14:35:06.111Z,4.75
2023-05-05T14:37:42.802Z,4.90
2023-05-05T14:40:51.473Z,4.20
2023-05-05T14:43:18.672Z,4.90
2023-05-05T14:46:03.798Z,4.85
2023-05-05T14:48:31.108Z,4.47
2023-05-05T14:51:00.902Z,4.15
2023-05-05T14:53:28.131Z,4.80
2023-05-05T14:55:59.888Z,6.38
2023-05-05T14:58:28.817Z,4.80
2023-05-05T15:06:29.836Z,4.47
2023-05-05T15:11:45.845Z,5.03
2023-05-05T15:14:13.776Z,4.60
2023-05-05T15:22:11.794Z,5.63
2023-05-05T15:24:42.552Z,5.60
2023-05-05T15:27:15.298Z,5.53
2023-05-05T15:38:43.727Z,5.00
2023-05-05T15:41:13.159Z,4.53
2023-05-05T15:43:45.798Z,4.00
2023-05-05T15:46:19.760Z,4.45
2023-05-05T15:48:47.249Z,4.57
2023-05-05T15:53:49.903Z,5.20
2023-05-05T15:59:35.822Z,4.95
2023-05-05T16:02:10.108Z,4.65
2023-05-05T16:04:40.762Z,5.40
2023-05-05T17:58:41.658Z,6.75
2023-05-05T18:01:25.549Z,6.65
2023-05-05T18:03:56.128Z,8.05
2023-05-05T19:01:44.625Z,19.13
2023-05-05T19:07:27.897Z,20.73
2023-05-05T19:10:06.413Z,22.20
2023-05-05T19:12:39.682Z,21.50
2023-05-05T19:26:11.842Z,21.77
2023-05-05T19:31:19.072Z,23.30
2023-05-05T19:33:55.127Z,26.70
2023-05-05T20:01:57.560Z,29.75
2023-05-05T20:04:26.097Z,30.42
2023-05-05T20:06:57.476Z,26.92
2023-05-05T20:09:24.955Z,29.95
2023-05-05T20:11:52.897Z,30.83
2023-05-05T20:14:20.615Z,29.52
2023-05-05T20:16:51.635Z,29.55
2023-05-05T20:21:50.413Z,26.60
2023-05-05T20:24:19.954Z,26.17
2023-05-05T20:26:49.803Z,26.50
2023-05-05T20:29:23.977Z,25.65
2023-05-05T20:32:00.295Z,25.55
2023-05-05T20:34:28.548Z,25.95
2023-05-05T20:37:03.531Z,25.80
2023-05-05T20:39:37.258Z,29.75
2023-05-05T20:42:06.468Z,28.15
2023-05-05T20:47:11.408Z,26.05
2023-05-05T20:52:11.190Z,26.95
2023-05-05T20:54:40.114Z,24.65
2023-05-05T20:57:07.964Z,24.45
2023-05-05T20:59:35.489Z,23.73
2023-05-05T21:02:02.715Z,25.00
2023-05-05T21:04:30.452Z,25.80
2023-05-05T21:07:00.685Z,23.88
2023-05-05T21:09:31.141Z,22.67
2023-05-05T21:12:00.056Z,24.50
2023-05-05T21:14:29.019Z,24.70
2023-05-05T21:16:56.420Z,26.00
2023-05-05T21:19:25.552Z,28.85
2023-05-05T21:22:02.473Z,25.50
2023-05-05T21:24:34.407Z,29.58
2023-05-05T21:27:01.729Z,29.58
2023-05-05T21:29:33.333Z,25.98
2023-05-05T21:32:00.908Z,24.08
2023-05-05T21:34:28.241Z,22.08
2023-05-05T21:36:55.552Z,24.05
2023-05-05T21:39:25.773Z,23.73
2023-05-05T21:41:54.364Z,28.02
2023-05-05T21:44:21.804Z,29.15
2023-05-05T21:46:49.198Z,26.08
2023-05-05T21:49:17.759Z,27.15
2023-05-05T21:51:47.379Z,25.02
2023-05-05T21:54:16.410Z,26.48
2023-05-05T21:56:44.053Z,29.90
2023-05-05T21:59:12.324Z,29.30
2023-05-05T22:01:45.866Z,31.45
2023-05-05T22:04:13.065Z,29.95
2023-05-05T22:06:40.235Z,30.70
2023-05-05T22:09:08.916Z,29.13
2023-05-05T22:11:36.836Z,30.08
2023-05-05T22:14:04.308Z,31.08
2023-05-05T22:16:34.706Z,30.95
2023-05-05T22:19:02.812Z,31.35
2023-05-05T22:21:31.848Z,29.67
2023-05-05T22:24:03.606Z,24.67
2023-05-05T22:40:09.944Z,24.30
2023-05-05T22:42:39.334Z,23.15
2023-05-05T22:45:07.018Z,23.95
2023-05-05T22:47:34.375Z,22.90
2023-05-05T22:50:01.596Z,24.35
2023-05-05T22:52:29.256Z,23.88
2023-05-05T22:54:56.695Z,21.90
2023-05-05T22:57:23.852Z,19.75
2023-05-05T22:59:51.752Z,18.30
2023-05-05T23:02:19.522Z,18.48
2023-05-05T23:04:46.918Z,18.33
2023-05-05T23:07:17.210Z,19.88
2023-05-05T23:09:44.364Z,20.65
2023-05-05T23:12:14.926Z,22.55
2023-05-05T23:17:09.213Z,22.60
2023-05-05T23:19:36.745Z,24.48
2023-05-05T23:22:04.303Z,21.80
2023-05-05T23:24:31.862Z,23.40
2023-05-05T23:27:00.149Z,21.75
2023-05-05T23:29:27.333Z,20.67
2023-05-05T23:31:54.461Z,19.52
2023-05-05T23:34:21.576Z,17.58
2023-05-05T23:36:48.694Z,18.52
2023-05-05T23:39:18.269Z,17.25
2023-05-05T23:41:45.859Z,16.73
2023-05-05T23:44:13.966Z,18.08
2023-05-05T23:46:43.194Z,17.60
2023-05-05T23:49:14.445Z,17.58
2023-05-05T23:51:42.670Z,18.30
2023-05-05T23:54:09.954Z,17.67
2023-05-05T23:56:40.727Z,17.33
2023-05-05T23:59:14.096Z,17.45
